Time;durP1;ratioP1;P1;durP2;ratioP2;P2;SDS_P1;SDS_P2;PMS_P1;PMS_P2;Temp;Humidity;BMP_temperature;BMP_pressure;BME280_temperature;BME280_humidity;BME280_pressure;Samples;Min_cycle;Max_cycle;Signal;HPM_P1;HPM_P2
2022/09/29 00:02:45;;;;;;;5.75;5.25;;;;;;;7.53;100.00;99958.97;10514881;28;20032;-72
2022/09/29 00:07:45;;;;;;;4.70;4.32;;;;;;;7.61;100.00;99963.34;10548612;28;20464;-72
2022/09/29 00:12:46;;;;;;;8.43;4.75;;;;;;;7.66;100.00;99952.81;10534607;28;20375;-71
2022/09/29 00:17:46;;;;;;;9.57;5.15;;;;;;;7.65;100.00;99954.63;10547049;28;20040;-70
2022/09/29 00:22:49;;;;;;;5.82;4.68;;;;;;;7.65;100.00;99954.63;10544591;28;20465;-72
2022/09/29 00:27:49;;;;;;;6.88;3.83;;;;;;;7.58;100.00;99951.09;10543702;28;20024;-73
2022/09/29 00:32:50;;;;;;;8.70;4.82;;;;;;;7.59;100.00;99944.66;10542526;28;20040;-72
2022/09/29 00:37:50;;;;;;;4.78;4.28;;;;;;;7.62;100.00;99946.97;10543809;28;20085;-72
2022/09/29 00:42:50;;;;;;;5.03;4.63;;;;;;;7.65;100.00;99949.25;10576693;28;20449;-71
2022/09/29 00:48:12;;;;;;;5.28;4.78;;;;;;;7.69;100.00;99938.94;10584606;28;20032;-71
2022/09/29 00:53:12;;;;;;;14.57;4.50;;;;;;;7.73;100.00;99942.88;10567153;28;20039;-70
2022/09/29 00:58:38;;;;;;;8.23;6.00;;;;;;;7.78;100.00;99943.06;10586603;28;20042;-72
2022/09/29 01:03:41;;;;;;;6.20;4.72;;;;;;;7.86;100.00;99945.59;10584261;28;20038;-71
2022/09/29 01:08:56;;;;;;;5.75;5.18;;;;;;;8.05;100.00;99938.59;10565526;28;20031;-71
2022/09/29 01:14:02;;;;;;;8.90;6.30;;;;;;;8.15;100.00;99941.72;10566676;28;20046;-72
2022/09/29 01:19:06;;;;;;;5.40;4.90;;;;;;;8.13;100.00;99938.38;10534507;28;20038;-71
2022/09/29 01:24:33;;;;;;;6.72;6.03;;;;;;;8.09;100.00;99934.44;10582170;28;20467;-72
2022/09/29 01:29:42;;;;;;;6.03;5.43;;;;;;;8.08;100.00;99938.19;10528557;28;20188;-71
2022/09/29 01:34:53;;;;;;;6.63;4.57;;;;;;;8.10;100.00;99936.13;10583077;28;20051;-71
2022/09/29 01:40:06;;;;;;;7.88;5.75;;;;;;;8.12;100.00;99939.44;10565719;28;20048;-71
2022/09/29 01:45:34;;;;;;;13.05;6.13;;;;;;;8.01;100.00;99931.09;10583360;28;20352;-72
2022/09/29 01:50:35;;;;;;;;;;;;;;;7.92;100.00;99942.09;10564062;28;20466;-71
2022/09/29 01:55:40;;;;;;;7.82;6.68;;;;;;;7.82;100.00;99944.34;10564286;28;19951;-72
2022/09/29 02:00:45;;;;;;;8.73;7.78;;;;;;;7.72;100.00;99948.44;10564762;28;20047;-72
2022/09/29 02:05:51;;;;;;;16.95;9.98;;;;;;;7.65;100.00;99943.84;10564226;28;20036;-71
2022/09/29 02:11:02;;;;;;;9.27;8.37;;;;;;;7.59;100.00;99941.16;10531276;28;20083;-72
2022/09/29 02:16:03;;;;;;;12.35;9.27;;;;;;;7.41;100.00;99942.53;10570793;28;20054;-72
2022/09/29 02:21:03;;;;;;;10.13;9.23;;;;;;;7.32;100.00;99942.91;10572455;28;20332;-72
2022/09/29 02:26:04;;;;;;;11.05;9.88;;;;;;;7.27;100.00;99942.66;10590032;28;20034;-72
2022/09/29 02:31:05;;;;;;;13.07;10.02;;;;;;;7.18;100.00;99937.47;10589019;28;20081;-73
2022/09/29 02:36:34;;;;;;;16.25;10.35;;;;;;;7.14;100.00;99944.25;10590439;28;20159;-74
2022/09/29 02:42:06;;;;;;;11.43;9.93;;;;;;;7.06;100.00;99947.13;10577354;28;20044;-72
2022/09/29 02:47:13;;;;;;;12.38;10.60;;;;;;;6.89;100.00;99949.31;10570144;28;20043;-73
2022/09/29 02:52:41;;;;;;;13.35;10.18;;;;;;;6.92;100.00;99938.16;10572588;28;20073;-72
2022/09/29 02:57:58;;;;;;;13.38;9.98;;;;;;;6.90;100.00;99950.13;10574925;28;20036;-73
2022/09/29 03:02:58;;;;;;;13.90;9.18;;;;;;;6.75;100.00;99942.97;10589296;28;20032;-72
2022/09/29 03:07:59;;;;;;;11.32;10.15;;;;;;;6.84;100.00;99946.34;10570562;28;20040;-72
2022/09/29 03:12:59;;;;;;;14.82;10.70;;;;;;;6.87;100.00;99948.66;10588662;28;20467;-72
2022/09/29 03:18:01;;;;;;;9.07;8.27;;;;;;;6.86;100.00;99954.22;10571103;28;20055;-71
2022/09/29 03:23:02;;;;;;;14.18;11.18;;;;;;;6.80;100.00;99955.84;10588176;28;20038;-71
2022/09/29 03:28:02;;;;;;;11.75;10.65;;;;;;;6.77;100.00;99956.25;10587696;28;20035;-72
2022/09/29 03:33:02;;;;;;;12.18;10.93;;;;;;;6.78;100.00;99951.69;10587741;28;20039;-72
2022/09/29 03:38:03;;;;;;;15.45;12.02;;;;;;;6.78;100.00;99957.06;10569969;28;20040;-71
2022/09/29 03:43:03;;;;;;;12.52;11.25;;;;;;;6.71;100.00;99955.16;10587696;28;20051;-72
2022/09/29 03:48:04;;;;;;;14.50;12.40;;;;;;;6.68;100.00;99971.69;10587704;28;20035;-73
2022/09/29 03:53:04;;;;;;;13.55;12.13;;;;;;;6.63;100.00;99968.75;10587010;28;20043;-72
2022/09/29 03:58:05;;;;;;;15.68;12.90;;;;;;;6.62;100.00;99968.97;10586050;28;20033;-73
2022/09/29 04:03:05;;;;;;;12.45;9.55;;;;;;;6.60;100.00;99971.00;10568664;28;20078;-72
2022/09/29 04:08:06;;;;;;;0.63;0.63;;;;;;;6.46;100.00;99970.06;10567972;28;20035;-73
2022/09/29 04:13:07;;;;;;;1.08;1.08;;;;;;;6.26;100.00;99976.09;10567771;28;20534;-72
2022/09/29 04:18:07;;;;;;;0.63;0.63;;;;;;;6.23;100.00;99973.78;10586412;28;20039;-73
2022/09/29 04:23:08;;;;;;;0.65;0.65;;;;;;;6.20;100.00;99984.09;10567261;28;20031;-72
2022/09/29 04:28:08;;;;;;;0.90;0.90;;;;;;;6.20;100.00;99987.59;10584055;28;20027;-71
2022/09/29 04:33:09;;;;;;;0.57;0.57;;;;;;;6.31;100.00;99994.31;10550014;28;20046;-72
2022/09/29 04:38:09;;;;;;;0.50;0.50;;;;;;;6.36;100.00;99983.00;10584820;28;20474;-72
2022/09/29 04:43:09;;;;;;;0.80;0.80;;;;;;;6.44;100.00;99996.31;10586824;28;20530;-72
2022/09/29 04:48:10;;;;;;;1.02;1.02;;;;;;;6.46;100.00;100005.84;10566246;28;20055;-72
2022/09/29 04:53:10;;;;;;;0.93;0.93;;;;;;;6.45;100.00;100014.13;10565664;28;20063;-72
2022/09/29 04:58:11;;;;;;;1.35;1.35;;;;;;;6.52;100.00;100012.31;10584480;28;20061;-72
2022/09/29 05:03:11;;;;;;;0.50;0.50;;;;;;;6.59;100.00;100023.13;10585572;28;20040;-72
2022/09/29 05:08:12;;;;;;;0.50;0.50;;;;;;;6.62;100.00;100030.81;10566150;28;20032;-73
2022/09/29 05:13:12;;;;;;;1.33;1.33;;;;;;;6.64;100.00;100040.38;10582410;28;20446;-72
2022/09/29 05:18:12;;;;;;;1.00;1.00;;;;;;;6.68;100.00;100028.19;10582318;28;20027;-73
2022/09/29 05:23:13;;;;;;;1.27;1.27;;;;;;;6.83;100.00;100025.44;10582570;28;20464;-72
2022/09/29 05:28:16;;;;;;;1.40;1.35;;;;;;;6.99;100.00;100035.09;10564568;28;20383;-72
2022/09/29 05:33:17;;;;;;;0.80;0.80;;;;;;;7.04;100.00;100024.53;10582786;28;20038;-72
2022/09/29 05:38:17;;;;;;;0.70;0.70;;;;;;;7.12;100.00;100035.19;10583139;28;20490;-72
2022/09/29 05:43:18;;;;;;;1.42;1.42;;;;;;;7.07;100.00;100042.16;10582773;28;20047;-72
2022/09/29 05:48:19;;;;;;;0.60;0.60;;;;;;;7.04;100.00;100046.06;10582919;28;20443;-72
2022/09/29 05:53:19;;;;;;;0.85;0.85;;;;;;;7.06;100.00;100051.28;10581331;28;20036;-72
2022/09/29 05:58:19;;;;;;;1.80;1.80;;;;;;;7.15;100.00;100061.72;10582448;28;20039;-72
2022/09/29 06:03:20;;;;;;;0.80;0.80;;;;;;;7.14;100.00;100054.63;10581906;28;20028;-73
2022/09/29 06:08:20;;;;;;;2.72;2.63;;;;;;;7.14;100.00;100046.56;10564715;28;20034;-71
2022/09/29 06:13:21;;;;;;;0.60;0.60;;;;;;;7.24;100.00;100056.97;10583432;28;20028;-73
2022/09/29 06:18:21;;;;;;;0.50;0.50;;;;;;;7.27;100.00;100066.53;10581472;28;20523;-73
2022/09/29 06:23:21;;;;;;;0.60;0.60;;;;;;;7.25;100.00;100063.22;10563541;28;20269;-72
2022/09/29 06:28:22;;;;;;;0.85;0.85;;;;;;;7.32;100.00;100072.19;10580885;28;20028;-73
2022/09/29 06:33:22;;;;;;;0.70;0.70;;;;;;;7.36;100.00;100066.19;10563473;28;20530;-73
2022/09/29 06:38:23;;;;;;;1.02;1.02;;;;;;;7.47;100.00;100081.00;10579971;28;20032;-72
2022/09/29 06:43:23;;;;;;;1.95;1.90;;;;;;;7.55;100.00;100070.03;10563190;28;20048;-73
2022/09/29 06:48:24;;;;;;;2.65;2.55;;;;;;;7.74;100.00;100087.34;10563847;28;20085;-72
2022/09/29 06:53:24;;;;;;;0.50;0.50;;;;;;;7.96;100.00;100089.97;10562751;28;20036;-73
2022/09/29 06:58:25;;;;;;;1.88;1.77;;;;;;;8.15;100.00;100100.81;10581626;28;20067;-72
2022/09/29 07:03:25;;;;;;;0.60;0.60;;;;;;;8.52;100.00;100105.94;10588167;28;20039;-73
2022/09/29 07:08:27;;;;;;;2.40;2.30;;;;;;;8.80;100.00;100113.91;10588267;28;20394;-72
2022/09/29 07:13:28;;;;;;;1.95;1.58;;;;;;;8.89;100.00;100109.16;10570520;28;20459;-73
2022/09/29 07:18:29;;;;;;;1.25;1.25;;;;;;;9.25;100.00;100112.28;10536589;28;20455;-73
2022/09/29 07:23:30;;;;;;;0.75;0.75;;;;;;;9.84;100.00;100117.81;10570866;28;20035;-72
2022/09/29 07:28:30;;;;;;;0.93;0.93;;;;;;;10.07;100.00;100123.56;10569061;28;20118;-73
2022/09/29 07:33:31;;;;;;;0.50;0.50;;;;;;;10.28;100.00;100122.50;10569322;28;20035;-72
2022/09/29 07:38:32;;;;;;;1.52;1.42;;;;;;;10.88;100.00;100127.56;10586939;28;20368;-72
2022/09/29 07:43:32;;;;;;;1.13;1.13;;;;;;;10.77;100.00;100128.28;10587461;28;20052;-72
2022/09/29 07:48:35;;;;;;;0.65;0.65;;;;;;;10.75;100.00;100139.31;10587000;28;20044;-73
2022/09/29 07:53:35;;;;;;;1.25;1.25;;;;;;;10.82;100.00;100142.84;10552777;28;20032;-73
2022/09/29 07:58:36;;;;;;;0.95;0.95;;;;;;;11.18;100.00;100152.19;10586667;28;20114;-72
2022/09/29 08:03:41;;;;;;;2.80;2.70;;;;;;;11.58;100.00;100160.81;10568104;28;20118;-73
2022/09/29 08:08:42;;;;;;;5.43;4.03;;;;;;;13.21;100.00;100151.13;10585505;28;20379;-73
2022/09/29 08:13:42;;;;;;;0.88;0.88;;;;;;;14.52;100.00;100163.69;10551556;28;20084;-73
2022/09/29 08:18:43;;;;;;;3.20;1.77;;;;;;;15.12;100.00;100168.63;10567654;28;20044;-72
2022/09/29 08:23:43;;;;;;;2.35;2.25;;;;;;;15.80;100.00;100175.81;10584858;28;20042;-73
2022/09/29 08:28:43;;;;;;;2.90;2.15;;;;;;;16.21;100.00;100184.59;10585044;28;20031;-71
2022/09/29 08:33:44;;;;;;;2.20;2.10;;;;;;;16.63;100.00;100183.22;10585829;28;20102;-71
2022/09/29 08:38:52;;;;;;;2.47;2.28;;;;;;;17.04;100.00;100192.72;10566487;28;20036;-73
2022/09/29 08:43:53;;;;;;;1.42;1.42;;;;;;;17.58;100.00;100192.69;10566861;28;20403;-72
2022/09/29 08:48:55;;;;;;;2.47;1.33;;;;;;;17.86;100.00;100204.41;10566416;28;20058;-71
2022/09/29 08:53:56;;;;;;;0.95;0.95;;;;;;;18.26;100.00;100217.56;10549754;28;20067;-71
2022/09/29 08:58:56;;;;;;;0.82;0.82;;;;;;;18.16;100.00;100216.69;10548267;28;20046;-72
2022/09/29 09:04:21;;;;;;;1.20;1.20;;;;;;;18.51;100.00;100216.88;10585096;28;20042;-72
2022/09/29 09:09:34;;;;;;;0.73;0.73;;;;;;;18.74;100.00;100218.38;10584078;28;20024;-71
2022/09/29 09:14:59;;;;;;;1.10;1.10;;;;;;;18.90;100.00;100226.69;10566825;28;20463;-70
2022/09/29 09:20:17;;;;;;;0.82;0.82;;;;;;;19.10;100.00;100226.72;10583886;28;20114;-71
2022/09/29 09:25:22;;;;;;;0.70;0.70;;;;;;;18.99;100.00;100219.56;10533290;28;20100;-72
2022/09/29 09:30:23;;;;;;;0.50;0.50;;;;;;;19.23;100.00;100226.19;10564734;28;20031;-71
2022/09/29 09:35:43;;;;;;;0.80;0.77;;;;;;;19.84;100.00;100235.63;10547645;28;20032;-72
2022/09/29 09:40:45;;;;;;;0.82;0.82;;;;;;;20.07;100.00;100234.22;10581557;28;20040;-70
2022/09/29 09:45:53;;;;;;;0.68;0.68;;;;;;;20.08;100.00;100235.91;10547258;28;20031;-71
2022/09/29 09:50:53;;;;;;;4.93;4.47;;;;;;;19.57;100.00;100236.69;10564976;28;20076;-71
2022/09/29 09:56:18;;;;;;;5.32;4.18;;;;;;;19.88;100.00;100236.75;10563867;28;20042;-71
2022/09/29 10:01:19;;;;;;;3.88;3.65;;;;;;;20.29;100.00;100239.41;10566260;28;20031;-71
2022/09/29 10:06:20;;;;;;;3.50;3.20;;;;;;;20.33;100.00;100237.78;10580606;28;20035;-72
2022/09/29 10:11:25;;;;;;;4.88;2.67;;;;;;;20.24;100.00;100242.19;10582272;28;20059;-71
2022/09/29 10:16:31;;;;;;;4.10;2.83;;;;;;;20.97;100.00;100239.78;10565767;28;20031;-71
2022/09/29 10:21:31;;;;;;;4.05;2.90;;;;;;;20.94;100.00;100236.78;10531671;28;20402;-70
2022/09/29 10:26:42;;;;;;;3.17;2.35;;;;;;;21.11;100.00;100237.22;10582162;28;20032;-71
2022/09/29 10:31:43;;;;;;;3.60;2.97;;;;;;;21.34;100.00;100243.97;10548208;28;20089;-70
2022/09/29 10:36:51;;;;;;;2.25;2.15;;;;;;;21.95;100.00;100240.78;10552893;28;20363;-71
2022/09/29 10:41:52;;;;;;;2.65;2.45;;;;;;;22.54;100.00;100249.03;10589532;28;20124;-70
2022/09/29 10:46:53;;;;;;;2.95;2.72;;;;;;;22.62;100.00;100257.50;10570913;28;20032;-71
2022/09/29 10:51:57;;;;;;;2.70;2.28;;;;;;;21.93;100.00;100256.78;10569875;28;20090;-71
2022/09/29 10:56:57;;;;;;;2.53;1.80;;;;;;;21.71;100.00;100250.91;10571512;28;20057;-73
2022/09/29 11:01:58;;;;;;;4.25;1.67;;;;;;;21.38;100.00;100253.34;10586558;28;20563;-72
2022/09/29 11:07:09;;;;;;;1.42;1.33;;;;;;;19.54;100.00;100263.88;10569936;28;20027;-71
2022/09/29 11:12:26;;;;;;;1.35;1.25;;;;;;;20.02;100.00;100259.81;10587382;28;20023;-72
2022/09/29 11:17:32;;;;;;;1.15;1.10;;;;;;;19.05;100.00;100273.38;10571120;28;20043;-73
2022/09/29 11:22:56;;;;;;;1.55;1.45;;;;;;;19.45;100.00;100277.31;10571359;28;20069;-71
2022/09/29 11:28:36;;;;;;;5.05;1.52;;;;;;;19.24;100.00;100277.28;10587131;28;20027;-71
2022/09/29 11:33:58;;;;;;;12.65;2.30;;;;;;;21.14;100.00;100272.44;10568734;28;20130;-70
2022/09/29 11:39:15;;;;;;;1.48;1.40;;;;;;;21.99;100.00;100274.94;10568612;28;20069;-71
2022/09/29 11:44:43;;;;;;;1.70;1.58;;;;;;;22.30;100.00;100282.94;10552357;28;20075;-71
2022/09/29 11:49:55;;;;;;;1.80;1.70;;;;;;;22.71;100.00;100279.75;10569496;28;20036;-71
2022/09/29 11:55:23;;;;;;;1.75;1.65;;;;;;;22.82;100.00;100286.00;10569684;28;20099;-70
2022/09/29 12:00:42;;;;;;;5.28;2.25;;;;;;;22.16;100.00;100290.25;10586503;28;20024;-71
2022/09/29 12:06:18;;;;;;;2.75;2.55;;;;;;;22.16;100.00;100301.28;10550851;28;20410;-71
2022/09/29 12:11:27;;;;;;;2.20;2.10;;;;;;;22.66;100.00;100299.13;10568121;28;20062;-71
2022/09/29 12:16:32;;;;;;;2.83;2.47;;;;;;;22.01;100.00;100299.44;10568098;28;20055;-71
2022/09/29 12:21:36;;;;;;;1.77;1.52;;;;;;;21.86;100.00;100297.66;10584461;28;20038;-71
2022/09/29 12:26:37;;;;;;;3.28;1.20;;;;;;;21.67;100.00;100296.69;10567838;28;20035;-70
2022/09/29 12:31:40;;;;;;;0.98;0.98;;;;;;;20.78;100.00;100300.13;10550480;28;20448;-70
2022/09/29 12:36:43;;;;;;;1.80;1.52;;;;;;;20.14;100.00;100312.59;10567774;28;20028;-71
2022/09/29 12:41:51;;;;;;;1.20;1.10;;;;;;;19.38;100.00;100324.25;10549887;28;20051;-71
2022/09/29 12:47:15;;;;;;;1.15;1.15;;;;;;;18.63;100.00;100312.63;10568092;28;20031;-72
2022/09/29 12:52:19;;;;;;;1.15;1.15;;;;;;;18.08;100.00;100309.25;10583791;28;20031;-72
2022/09/29 12:57:23;;;;;;;4.60;1.10;;;;;;;17.88;100.00;100315.38;10568276;28;20391;-71
2022/09/29 13:02:49;;;;;;;1.13;1.10;;;;;;;17.72;100.00;100321.78;10550083;28;20478;-72
2022/09/29 13:08:20;;;;;;;2.00;1.40;;;;;;;18.51;100.00;100323.00;10567851;28;20429;-72
2022/09/29 13:13:42;;;;;;;6.22;1.42;;;;;;;18.56;100.00;100315.59;10583674;28;20447;-71
2022/09/29 13:19:04;;;;;;;11.50;2.42;;;;;;;19.43;100.00;100329.78;10566558;28;20031;-71
2022/09/29 13:24:27;;;;;;;0.88;0.88;;;;;;;18.91;100.00;100321.59;10586507;28;20023;-72
2022/09/29 13:29:28;;;;;;;1.83;1.33;;;;;;;18.02;100.00;100331.38;10550679;28;20024;-71
2022/09/29 13:34:35;;;;;;;1.23;1.20;;;;;;;17.77;100.00;100343.78;10565813;28;20514;-71
2022/09/29 13:39:36;;;;;;;1.35;1.27;;;;;;;17.65;100.00;100330.19;10564063;28;20498;-71
2022/09/29 13:44:36;;;;;;;1.55;1.45;;;;;;;17.76;100.00;100344.81;10565089;28;20035;-72
2022/09/29 13:49:37;;;;;;;4.03;1.55;;;;;;;19.12;100.00;100344.50;10582409;28;20027;-72
2022/09/29 13:54:40;;;;;;;1.60;1.50;;;;;;;19.70;100.00;100343.31;10546291;28;20471;-71
2022/09/29 13:59:45;;;;;;;2.60;1.20;;;;;;;19.62;100.00;100346.59;10582307;28;20036;-71
2022/09/29 14:04:48;;;;;;;5.88;1.20;;;;;;;20.36;100.00;100352.72;10581881;28;20084;-72
2022/09/29 14:09:49;;;;;;;1.10;1.10;;;;;;;20.19;100.00;100352.97;10581138;28;20039;-71
2022/09/29 14:14:52;;;;;;;0.85;0.85;;;;;;;18.99;100.00;100359.53;10546705;28;20085;-71
2022/09/29 14:20:05;;;;;;;4.60;1.58;;;;;;;18.00;100.00;100363.72;10564096;28;20028;-71
2022/09/29 14:25:12;;;;;;;1.83;1.73;;;;;;;17.25;100.00;100366.13;10582194;28;20378;-71
2022/09/29 14:30:17;;;;;;;0.85;0.85;;;;;;;16.71;100.00;100376.88;10582041;28;20028;-72
2022/09/29 14:35:36;;;;;;;2.47;1.88;;;;;;;16.31;100.00;100379.81;10563137;28;20467;-72
2022/09/29 14:40:36;;;;;;;1.77;1.65;;;;;;;15.99;100.00;100375.72;10563186;28;20054;-72
2022/09/29 14:56:56;;;;;;;1.83;1.42;;;;;;;15.70;100.00;100393.19;10552010;28;20036;-71
2022/09/29 15:02:06;;;;;;;;;;;;;;;15.73;100.00;100406.34;10548262;28;20068;-71
2022/09/29 15:07:19;;;;;;;10.18;1.92;;;;;;;15.75;100.00;100407.75;10562211;28;20354;-71
2022/09/29 15:12:27;;;;;;;2.03;1.30;;;;;;;15.85;100.00;100415.31;10579232;28;20019;-71
2022/09/29 15:17:49;;;;;;;2.08;1.92;;;;;;;15.87;100.00;100418.63;10581788;28;20040;-71
2022/09/29 15:23:01;;;;;;;2.38;0.95;;;;;;;15.84;100.00;100430.03;10534188;28;20028;-72
2022/09/29 15:28:24;;;;;;;1.40;1.13;;;;;;;15.69;100.00;100425.09;10588204;28;20057;-70
2022/09/29 15:33:26;;;;;;;4.25;1.30;;;;;;;15.49;100.00;100435.59;10568116;28;20483;-72
2022/09/29 15:38:31;;;;;;;1.33;1.17;;;;;;;15.23;100.00;100431.50;10586369;28;20030;-71
2022/09/29 15:43:59;;;;;;;3.65;1.58;;;;;;;15.01;100.00;100431.28;10587838;28;20051;-72
2022/09/29 15:49:14;;;;;;;1.20;1.17;;;;;;;14.84;100.00;100440.19;10582556;28;20035;-71
2022/09/29 15:54:15;;;;;;;1.33;1.20;;;;;;;14.68;100.00;100445.50;10568637;28;20034;-72
2022/09/29 15:59:18;;;;;;;0.88;0.70;;;;;;;14.56;100.00;100451.78;10586706;28;20035;-72
2022/09/29 16:04:19;;;;;;;1.63;1.10;;;;;;;14.39;100.00;100462.50;10585347;28;20435;-71
2022/09/29 16:09:19;;;;;;;1.38;0.85;;;;;;;14.21;100.00;100467.19;10585183;28;20035;-71
2022/09/29 16:14:24;;;;;;;3.22;1.00;;;;;;;14.02;100.00;100459.06;10567855;28;20047;-71
2022/09/29 16:19:26;;;;;;;5.25;1.02;;;;;;;13.93;100.00;100479.50;10568476;28;20126;-71
2022/09/29 16:24:34;;;;;;;1.17;1.17;;;;;;;13.78;100.00;100481.78;10586184;28;20036;-73
2022/09/29 16:29:35;;;;;;;1.27;1.17;;;;;;;13.66;100.00;100492.63;10568470;28;20028;-71
2022/09/29 16:34:35;;;;;;;1.02;1.02;;;;;;;13.50;100.00;100502.22;10567018;28;20028;-72
2022/09/29 16:39:43;;;;;;;1.40;1.30;;;;;;;13.27;100.00;100500.16;10585730;28;20032;-72
2022/09/29 16:44:43;;;;;;;4.85;2.15;;;;;;;13.20;100.00;100521.94;10567541;28;20110;-71
2022/09/29 16:49:47;;;;;;;5.22;1.33;;;;;;;13.04;100.00;100526.06;10550577;28;20023;-71
2022/09/29 16:54:47;;;;;;;1.77;1.30;;;;;;;12.88;100.00;100536.66;10583503;28;20023;-71
2022/09/29 16:59:50;;;;;;;1.02;0.90;;;;;;;12.71;100.00;100539.09;10549115;28;20032;-71
2022/09/29 17:04:51;;;;;;;1.98;1.77;;;;;;;12.51;100.00;100544.69;10566399;28;20089;-71
2022/09/29 17:09:54;;;;;;;0.98;0.98;;;;;;;12.30;100.00;100543.94;10583408;28;20084;-71
2022/09/29 17:14:56;;;;;;;8.07;1.80;;;;;;;12.11;100.00;100542.19;10565819;28;20024;-70
2022/09/29 17:19:56;;;;;;;7.80;2.40;;;;;;;11.98;100.00;100553.09;10549511;28;20117;-72
2022/09/29 17:24:57;;;;;;;3.38;2.45;;;;;;;11.82;100.00;100552.50;10584695;28;20032;-72
2022/09/29 17:29:57;;;;;;;12.43;3.55;;;;;;;11.61;100.00;100544.63;10584401;28;20027;-72
2022/09/29 17:34:57;;;;;;;6.53;2.67;;;;;;;11.46;100.00;100555.72;10581992;28;20038;-71
2022/09/29 17:39:58;;;;;;;8.15;2.70;;;;;;;11.33;100.00;100559.31;10547596;28;20087;-71
2022/09/29 17:44:58;;;;;;;5.03;2.53;;;;;;;11.22;100.00;100557.22;10582428;28;20039;-71
2022/09/29 17:50:11;;;;;;;3.60;3.22;;;;;;;11.10;100.00;100564.31;10547677;28;20031;-71
2022/09/29 17:55:11;;;;;;;3.38;3.08;;;;;;;11.00;100.00;100566.59;10565767;28;20019;-72
2022/09/29 18:00:21;;;;;;;8.75;3.45;;;;;;;10.91;100.00;100580.38;10581675;28;20024;-72
2022/09/29 18:05:23;;;;;;;6.63;4.53;;;;;;;10.78;100.00;100585.75;10581376;28;20517;-71
2022/09/29 18:10:37;;;;;;;8.27;3.90;;;;;;;10.63;100.00;100591.38;10548550;28;20035;-72
2022/09/29 18:15:37;;;;;;;6.60;4.85;;;;;;;10.52;100.00;100594.69;10549962;28;20019;-72
2022/09/29 18:20:39;;;;;;;6.35;3.65;;;;;;;10.41;100.00;100614.25;10582808;28;20036;-73
2022/09/29 18:25:39;;;;;;;7.65;3.83;;;;;;;10.31;100.00;100614.63;10582283;28;20053;-71
2022/09/29 18:30:40;;;;;;;5.60;2.92;;;;;;;10.23;100.00;100629.13;10563797;28;20032;-72
2022/09/29 18:35:42;;;;;;;8.88;2.95;;;;;;;10.19;100.00;100635.16;10563434;28;20081;-72
2022/09/29 18:40:43;;;;;;;3.63;3.17;;;;;;;10.11;100.00;100627.19;10582275;28;20487;-73
2022/09/29 18:45:44;;;;;;;4.10;3.70;;;;;;;9.91;100.00;100613.56;10564742;28;20114;-71
2022/09/29 18:50:48;;;;;;;5.25;4.07;;;;;;;9.90;100.00;100634.38;10562902;28;20047;-72
2022/09/29 18:55:49;;;;;;;4.35;3.83;;;;;;;9.90;100.00;100641.66;10566609;28;20031;-72
2022/09/29 19:00:52;;;;;;;9.10;5.22;;;;;;;9.81;100.00;100640.16;10591213;28;20031;-72
2022/09/29 19:05:53;;;;;;;9.32;5.15;;;;;;;9.73;100.00;100643.81;10570704;28;20107;-72
2022/09/29 19:10:56;;;;;;;8.68;5.18;;;;;;;9.72;100.00;100659.22;10554035;28;20118;-72
2022/09/29 19:15:58;;;;;;;6.82;4.47;;;;;;;9.65;100.00;100662.91;10537559;28;20457;-72
2022/09/29 19:20:59;;;;;;;5.80;5.22;;;;;;;9.59;100.00;100663.72;10570797;28;20509;-73
2022/09/29 19:26:00;;;;;;;5.75;4.75;;;;;;;9.51;100.00;100664.69;10588678;28;20396;-72
2022/09/29 19:31:10;;;;;;;4.90;4.47;;;;;;;9.44;100.00;100670.03;10569840;28;20383;-73
2022/09/29 19:36:19;;;;;;;16.95;8.43;;;;;;;9.42;100.00;100688.31;10571326;28;20088;-72
2022/09/29 19:41:22;;;;;;;10.60;6.88;;;;;;;9.36;100.00;100681.00;10586961;28;20051;-73
2022/09/29 19:46:22;;;;;;;10.10;6.13;;;;;;;9.33;100.00;100692.19;10587279;28;20039;-73
2022/09/29 19:56:50;;;;;;;9.32;7.63;;;;;;;9.18;100.00;100704.94;10587047;28;20040;-73
2022/09/29 20:01:50;;;;;;;22.48;7.30;;;;;;;9.12;100.00;100705.69;10551826;28;20032;-72
2022/09/29 20:06:51;;;;;;;12.23;5.78;;;;;;;9.04;100.00;100710.22;10568290;28;20038;-73
2022/09/29 20:11:51;;;;;;;10.70;6.68;;;;;;;8.96;100.00;100707.63;10568353;28;20024;-72
2022/09/29 20:16:54;;;;;;;11.70;6.55;;;;;;;8.95;100.00;100705.94;10586436;28;20118;-72
2022/09/29 20:21:56;;;;;;;12.50;7.10;;;;;;;8.99;100.00;100726.13;10585723;28;20478;-73
2022/09/29 20:26:56;;;;;;;22.15;8.95;;;;;;;8.92;100.00;100730.63;10568307;28;20067;-73
2022/09/29 20:31:56;;;;;;;11.98;8.23;;;;;;;8.84;100.00;100731.59;10586990;28;20031;-72
2022/09/29 20:36:57;;;;;;;9.45;8.00;;;;;;;8.82;100.00;100730.13;10567747;28;20475;-74
2022/09/29 20:41:57;;;;;;;11.27;7.43;;;;;;;8.79;100.00;100744.00;10567805;28;20131;-73
2022/09/29 20:46:58;;;;;;;14.77;7.72;;;;;;;8.72;100.00;100743.91;10584221;28;20027;-72
2022/09/29 20:51:58;;;;;;;12.18;9.20;;;;;;;8.67;100.00;100751.75;10585280;28;20028;-71
2022/09/29 20:56:59;;;;;;;17.38;7.82;;;;;;;8.65;100.00;100752.94;10566349;28;20035;-72
2022/09/29 21:01:59;;;;;;;11.82;8.38;;;;;;;8.63;100.00;100763.94;10585248;28;20086;-72
2022/09/29 21:07:00;;;;;;;15.93;10.07;;;;;;;8.57;100.00;100762.00;10584349;28;20039;-72
2022/09/29 21:12:01;;;;;;;11.10;9.68;;;;;;;8.65;100.00;100769.13;10583274;28;20036;-72
2022/09/29 21:17:02;;;;;;;12.43;10.00;;;;;;;8.59;100.00;100768.88;10566580;28;20027;-73
2022/09/29 21:22:02;;;;;;;13.95;10.40;;;;;;;8.59;100.00;100776.16;10566552;28;20055;-72
2022/09/29 21:27:03;;;;;;;11.57;10.18;;;;;;;8.67;100.00;100773.31;10584001;28;20557;-72
2022/09/29 21:32:04;;;;;;;12.32;10.18;;;;;;;8.65;100.00;100783.50;10565621;28;20028;-73
2022/09/29 21:37:04;;;;;;;18.27;10.23;;;;;;;8.61;100.00;100790.28;10583971;28;20092;-72
2022/09/29 21:42:04;;;;;;;23.38;13.88;;;;;;;8.59;100.00;100786.94;10583489;28;20459;-73
2022/09/29 21:47:05;;;;;;;15.40;10.65;;;;;;;8.55;100.00;100796.41;10564383;28;20078;-72
2022/09/29 21:52:05;;;;;;;17.17;10.80;;;;;;;8.50;100.00;100796.16;10583012;28;20421;-71
2022/09/29 21:57:06;;;;;;;17.98;11.95;;;;;;;8.42;100.00;100801.63;10565181;28;20046;-72
2022/09/29 22:02:10;;;;;;;15.05;10.60;;;;;;;8.40;100.00;100811.78;10582877;28;20379;-71
2022/09/29 22:07:11;;;;;;;18.95;11.93;;;;;;;8.40;100.00;100814.50;10530501;28;20031;-71
2022/09/29 22:12:11;;;;;;;26.40;12.05;;;;;;;8.43;100.00;100817.66;10548002;28;20158;-74
2022/09/29 22:17:13;;;;;;;24.75;11.93;;;;;;;8.47;100.00;100816.25;10582008;28;20032;-72
2022/09/29 22:22:13;;;;;;;25.38;11.95;;;;;;;8.52;100.00;100821.94;10581883;28;20050;-72
2022/09/29 22:27:14;;;;;;;17.10;13.15;;;;;;;8.52;100.00;100821.09;10565394;28;20031;-71
2022/09/29 22:32:14;;;;;;;20.58;11.68;;;;;;;8.65;100.00;100824.00;10587632;28;20459;-72
2022/09/29 22:37:15;;;;;;;14.57;11.07;;;;;;;8.83;100.00;100831.69;10589741;28;20040;-72
2022/09/29 22:42:15;;;;;;;11.73;9.63;;;;;;;9.00;100.00;100830.47;10589903;28;20139;-71
2022/09/29 22:47:16;;;;;;;16.30;9.38;;;;;;;9.11;100.00;100831.84;10588753;28;20101;-73
2022/09/29 22:52:16;;;;;;;11.40;7.40;;;;;;;9.25;100.00;100817.47;10589090;28;20035;-71
2022/09/29 22:57:16;;;;;;;8.38;7.38;;;;;;;9.40;100.00;100820.09;10589656;28;20130;-71
2022/09/29 23:02:17;;;;;;;8.65;7.72;;;;;;;9.51;100.00;100818.78;10588718;28;20031;-71
2022/09/29 23:07:17;;;;;;;15.27;7.80;;;;;;;9.58;100.00;100816.13;10589078;28;20398;-71
2022/09/29 23:12:20;;;;;;;9.80;6.93;;;;;;;9.58;100.00;100810.72;10588842;28;20034;-71
2022/09/29 23:17:21;;;;;;;14.25;7.63;;;;;;;9.63;100.00;100805.56;10589808;28;20023;-72
2022/09/29 23:22:22;;;;;;;6.45;5.78;;;;;;;9.62;100.00;100809.31;10570388;28;20070;-71
2022/09/29 23:27:22;;;;;;;10.00;7.63;;;;;;;9.68;100.00;100819.34;10552682;28;20032;-70